• Join FlightAware (Why Join?)
  • Login
  • US Flag 
02:06AM EDT


 

Airport Tracker/Info


-or-


 

Live Flight TrackerFlight Track Log ✈ DAL1550 ✈ 17-Apr-2013 ✈ KLAS - KMSP

Flight Track Log - Related Links

Times and Time Zones

All times are in EDT time to prevent confusion due to time zone crossing. See the DAL1550 flight status page for this flight to view local times or setup timezone preferences in your user account.

Time Position Orientation Groundspeed Altitude Reporting Facility
EDT Latitude Longitude Course Direction KTS MPH feet Rate Location/Type
10:28AM 36.1083 -115.1469 60° Northeast 155 178 3,500  Level Los Angeles Center
10:29AM 36.1392 -115.0808 60° Northeast 243 280 5,300 1,500 Climbing Los Angeles Center
10:30AM 36.1386 -115.0467 91° East 245 282 5,900 2,640 Climbing Los Angeles Center
10:31AM 36.1442 -114.9508 86° East 268 308 9,300 2,520 Climbing Los Angeles Center
10:32AM 36.1586 -114.8278 82° East 299 344 11,100 1,920 Climbing Los Angeles Center
10:33AM 36.1878 -114.7081 73° East 347 399 13,300 1,860 Climbing Los Angeles Center
10:34AM 36.1908 -114.5706 88° East 394 453 15,000 1,980 Climbing Los Angeles Center
10:35AM 36.1936 -114.4303 89° East 406 467 17,400 1,980 Climbing Los Angeles Center
10:36AM 36.1953 -114.2861 89° East 414 476 19,100 1,500 Climbing Los Angeles Center
10:37AM 36.2450 -114.1528 65° Northeast 427 491 20,600 1,440 Climbing Los Angeles Center
10:38AM 36.3122 -114.0292 56° Northeast 435 501 22,100 1,440 Climbing Los Angeles Center
10:39AM 36.4008 -113.8781 54° Northeast 449 517 23,600 1,380 Climbing Los Angeles Center
10:40AM 36.4550 -113.7286 66° East 474 545 25,000 1,200 Climbing Los Angeles Center
10:41AM 36.5086 -113.5844 65° Northeast 470 541 26,200 1,140 Climbing Los Angeles Center
10:42AM 36.5642 -113.4322 66° East 481 554 27,400 1,200 Climbing Los Angeles Center
10:43AM 36.6328 -113.2906 59° Northeast 481 554 28,700 780 Climbing Los Angeles Center
10:44AM 36.7136 -113.1564 53° Northeast 484 557 29,000 120 Climbing Los Angeles Center
10:45AM 36.8058 -112.9931 55° Northeast 482 555 29,000  Level Los Angeles Center
10:46AM 36.8819 -112.8583 55° Northeast 480 552 29,000  Level Los Angeles Center
10:47AM 36.9586 -112.7222 55° Northeast 481 554 29,000  Level Los Angeles Center
10:48AM 37.0333 -112.5867 55° Northeast 478 550 29,000  Level Los Angeles Center
10:49AM 37.0947 -112.4775 55° Northeast 482 555 29,000  Level Los Angeles Center
10:50AM 37.1858 -112.3128 55° Northeast 484 557 29,000  Level Los Angeles Center
10:51AM 37.2769 -112.1478 55° Northeast 484 557 29,000  Level Los Angeles Center
10:52AM 37.3367 -112.0392 55° Northeast 479 551 29,000  Level Los Angeles Center
10:53AM 37.4144 -111.9003 55° Northeast 483 556 29,000  Level Salt Lake Center
10:54AM 37.4419 -111.8464 57° Northeast 478 550 29,000  Level Denver Center
10:55AM 37.5333 -111.6783 56° Northeast 487 560 29,000  Level Denver Center
10:56AM 37.6086 -111.5383 56° Northeast 486 559 29,000  Level Denver Center
10:56AM 37.6394 -111.4842 54° Northeast 483 556 29,000  Level Salt Lake Center
10:57AM 37.7292 -111.3156 56° Northeast 483 556 29,000  Level Salt Lake Center
10:58AM 37.8053 -111.1758 55° Northeast 484 557 29,000  Level Salt Lake Center
10:59AM 37.8336 -111.1172 59° Northeast 486 559 29,000  Level Denver Center
11:00AM 37.9089 -110.9767 56° Northeast 486 559 29,000  Level Denver Center
11:01AM 37.9994 -110.8053 56° Northeast 490 564 29,000  Level Denver Center
11:02AM 38.0672 -110.6775 56° Northeast 488 562 29,000  Level Denver Center
11:03AM 38.1508 -110.5161 57° Northeast 490 564 29,000  Level Denver Center
11:04AM 38.2236 -110.3775 56° Northeast 492 566 29,000  Level Denver Center
11:05AM 38.3067 -110.2158 57° Northeast 490 564 29,000  Level Denver Center
11:06AM 38.3806 -110.0753 56° Northeast 497 572 29,000  Level Denver Center
11:07AM 38.4644 -109.9111 57° Northeast 496 571 29,000  Level Denver Center
11:08AM 38.5353 -109.7706 57° Northeast 495 570 29,000  Level Denver Center
11:09AM 38.6189 -109.6072 57° Northeast 493 567 29,000  Level Denver Center
11:10AM 38.6900 -109.4642 57° Northeast 496 571 29,000  Level Denver Center
11:11AM 38.7725 -109.3019 57° Northeast 488 562 29,000  Level Denver Center
11:12AM 38.8422 -109.1608 58° Northeast 491 565 29,000  Level Denver Center
11:13AM 38.9114 -109.0206 58° Northeast 488 562 29,000  Level Denver Center
11:14AM 38.9939 -108.8572 57° Northeast 489 563 29,000  Level Denver Center
11:15AM 39.0633 -108.7175 57° Northeast 485 558 29,000  Level Denver Center
11:16AM 39.1433 -108.5536 58° Northeast 488 562 29,000  Level Denver Center
11:17AM 39.2125 -108.4156 57° Northeast 483 556 29,000 180 Level Denver Center
11:19AM 39.2922 -108.2517 58° Northeast 472 543 29,400 540 Climbing Denver Center
11:20AM 39.3628 -108.1067 58° Northeast 496 571 30,200 720 Climbing Denver Center
11:21AM 39.4464 -107.9339 58° Northeast 510 587 31,000 360 Climbing Denver Center
11:22AM 39.5178 -107.7847 58° Northeast 511 588 31,000  Level Denver Center
11:23AM 39.5997 -107.6131 58° Northeast 508 585 31,000  Level Denver Center
11:24AM 39.6694 -107.4642 59° Northeast 506 582 31,000  Level Denver Center
11:25AM 39.7539 -107.2894 58° Northeast 511 588 31,000  Level Denver Center
11:26AM 39.8306 -107.1244 59° Northeast 507 583 31,000  Level Denver Center
11:27AM 39.9064 -106.9650 58° Northeast 512 589 31,000  Level Denver Center
11:28AM 39.9783 -106.8111 59° Northeast 515 593 31,000  Level Denver Center
11:29AM 40.0617 -106.6336 58° Northeast 514 592 31,000  Level Denver Center
11:30AM 40.1375 -106.4644 60° Northeast 513 590 31,000  Level Denver Center
11:31AM 40.2119 -106.3014 59° Northeast 515 593 31,000  Level Denver Center
11:32AM 40.2894 -106.1378 58° Northeast 522 601 31,000  Level Denver Center
11:33AM 40.3633 -105.9706 60° Northeast 527 606 31,000  Level Denver Center
11:34AM 40.4389 -105.8022 59° Northeast 528 608 31,000  Level Denver Center
11:35AM 40.5150 -105.6322 59° Northeast 533 613 31,000  Level Denver Center
11:36AM 40.5900 -105.4628 60° Northeast 531 611 31,000  Level Denver Center
11:37AM 40.6664 -105.2928 59° Northeast 531 611 31,000  Level Denver Center
11:38AM 40.7422 -105.1183 60° Northeast 538 619 31,000  Level Denver Center
11:39AM 40.8308 -104.9161 60° Northeast 537 618 31,000  Level Denver Center
11:40AM 40.9058 -104.7431 60° Northeast 536 617 31,000  Level Denver Center
11:41AM 40.9806 -104.5747 60° Northeast 527 606 31,000  Level Denver Center
11:42AM 41.0519 -104.4086 60° Northeast 532 612 31,000  Level Denver Center
11:43AM 41.1322 -104.2211 60° Northeast 527 606 31,000  Level Denver Center
11:44AM 41.2019 -104.0581 60° Northeast 532 612 31,000  Level Denver Center
11:45AM 41.2819 -103.8697 60° Northeast 527 606 31,000  Level Denver Center
11:46AM 41.3514 -103.7075 60° Northeast 528 608 31,000  Level Denver Center
11:47AM 41.4186 -103.5450 61° Northeast 526 605 31,000  Level Denver Center
11:48AM 41.4978 -103.3564 61° Northeast 525 604 31,000  Level Denver Center
11:49AM 41.5647 -103.1956 61° Northeast 522 601 31,000  Level Denver Center
11:51AM 41.6428 -103.0067 61° Northeast 521 600 31,000  Level Denver Center
11:52AM 41.7081 -102.8461 61° Northeast 519 597 31,000  Level Denver Center
11:53AM 41.7858 -102.6558 61° Northeast 522 601 31,000  Level Denver Center
11:54AM 41.8511 -102.4925 62° Northeast 521 600 31,000  Level Denver Center
11:55AM 41.9286 -102.3019 61° Northeast 522 601 31,000  Level Denver Center
11:56AM 41.9997 -102.1203 62° Northeast 522 601 31,000  Level Denver Center
11:57AM 42.0661 -101.9539 62° Northeast 525 604 31,000  Level Denver Center
11:58AM 42.1319 -101.7883 62° Northeast 524 603 31,000  Level Denver Center
11:59AM 42.2092 -101.5936 62° Northeast 524 603 31,000  Level Denver Center
12:00PM 42.2736 -101.4261 62° Northeast 524 603 31,000  Level Denver Center
12:01PM 42.3497 -101.2319 62° Northeast 522 601 31,000  Level Denver Center
12:02PM 42.4142 -101.0631 63° Northeast 526 605 31,000  Level Denver Center
12:03PM 42.4883 -100.8681 63° Northeast 523 602 31,000  Level Denver Center
12:04PM 42.5533 -100.7000 62° Northeast 524 603 31,000  Level Denver Center
12:05PM 42.6153 -100.5336 63° Northeast 518 596 31,000  Level Denver Center
12:06PM 42.6889 -100.3386 63° Northeast 518 596 31,000  Level Denver Center
12:07PM 42.7547 -100.1603 63° Northeast 517 595 31,000  Level Denver Center
12:08PM 42.8183 -99.9881 63° Northeast 511 588 31,000  Level Denver Center
12:09PM 42.9069 -99.7464 63° Northeast 513 590 31,000  Level Minneapolis Center
12:10PM 42.9694 -99.5756 63° Northeast 514 592 31,000  Level Minneapolis Center
12:11PM 43.0333 -99.4014 63° Northeast 513 590 31,000  Level Minneapolis Center
12:12PM 43.0958 -99.2267 64° Northeast 511 588 31,000  Level Minneapolis Center
12:14PM 43.1583 -99.0517 64° Northeast 510 587 31,000  Level Minneapolis Center
12:15PM 43.2250 -98.8692 63° Northeast 510 587 31,000  Level Minneapolis Center
12:16PM 43.2858 -98.6958 64° Northeast 508 585 31,000  Level Minneapolis Center
12:17PM 43.3464 -98.5239 64° Northeast 503 579 31,000  Level Minneapolis Center
12:18PM 43.4078 -98.3494 64° Northeast 507 583 31,000  Level Minneapolis Center
12:19PM 43.4800 -98.1425 64° Northeast 503 579 31,000  Level Minneapolis Center
12:20PM 43.5406 -97.9681 64° Northeast 505 581 31,000  Level Minneapolis Center
12:21PM 43.6006 -97.7933 65° Northeast 506 582 31,000  Level Minneapolis Center
12:22PM 43.6600 -97.6208 64° Northeast 503 579 31,000  Level Minneapolis Center
12:23PM 43.7161 -97.4553 65° Northeast 483 556 31,000  Level Minneapolis Center
12:24PM 43.7717 -97.2894 65° Northeast 477 549 31,000  Level Minneapolis Center
12:25PM 43.8269 -97.1236 65° Northeast 477 549 31,000  Level Minneapolis Center
12:26PM 43.8825 -96.9575 65° Northeast 477 549 31,000  Level Minneapolis Center
12:27PM 43.9478 -96.7581 65° Northeast 476 548 31,000  Level Minneapolis Center
12:28PM 44.0025 -96.5892 66° East 480 552 31,000  Level Minneapolis Center
12:29PM 44.0572 -96.4219 65° Northeast 480 552 31,000 -240 Level Minneapolis Center
12:30PM 44.1111 -96.2544 66° East 481 554 30,600 -720 Descending Minneapolis Center
12:31PM 44.1619 -96.0967 66° East 474 545 29,600 -1,200 Descending Minneapolis Center
12:32PM 44.2256 -95.9039 65° Northeast 467 537 28,200 -1,260 Descending Minneapolis Center
12:33PM 44.2767 -95.7442 66° East 458 527 27,100 -1,500 Descending Minneapolis Center
12:34PM 44.3233 -95.5811 68° East 455 524 25,200 -1,860 Descending Minneapolis Center
12:35PM 44.3681 -95.4100 70° East 467 537 23,300 -1,440 Descending Minneapolis Center
12:36PM 44.4144 -95.2364 69° East 476 548 22,300 -1,020 Descending Minneapolis Center
12:37PM 44.4583 -95.0686 70° East 467 537 21,300 -1,440 Descending Minneapolis Center
12:38PM 44.5014 -94.9039 70° East 459 528 19,400 -1,860 Descending Minneapolis Center
12:39PM 44.5428 -94.7472 70° East 446 513 17,600 -1,920 Descending Minneapolis Center
12:40PM 44.5814 -94.5956 70° East 430 495 15,500 -2,040 Descending Minneapolis Center
12:41PM 44.6356 -94.4039 68° East 384 442 13,100 -1,920 Descending FAA TRACON SMA TRACON (SMA)
12:42PM 44.6486 -94.3506 71° East 376 433 12,500 -1,680 Descending FAA TRACON SMA TRACON (SMA)
12:42PM 44.6589 -94.3086 71° East 371 427 12,000 -1,500 Descending FAA TRACON SMA TRACON (SMA)
12:42PM 44.6681 -94.2656 73° East 372 428 11,500 -1,440 Descending FAA TRACON SMA TRACON (SMA)
12:43PM 44.6794 -94.2244 69° East 371 427 11,100 -1,140 Descending FAA TRACON SMA TRACON (SMA)
12:43PM 44.6925 -94.1733 70° East 362 417 10,800 -300 Descending FAA TRACON SMA TRACON (SMA)
12:43PM 44.7031 -94.1333 70° East 357 411 10,900 120 Climbing FAA TRACON SMA TRACON (SMA)
12:44PM 44.7117 -94.0919 74° East 357 411 10,900  Level FAA TRACON SMA TRACON (SMA)
12:44PM 44.7233 -94.0408 72° East 356 410 10,900 -480 Level FAA TRACON SMA TRACON (SMA)
12:44PM 44.7314 -94.0017 74° East 345 397 10,600 -900 Descending FAA TRACON SMA TRACON (SMA)
12:45PM 44.7400 -93.9642 72° East 333 383 10,300 -1,080 Descending FAA TRACON SMA TRACON (SMA)
12:45PM 44.7500 -93.9186 73° East 318 366 9,900 -1,200 Descending FAA TRACON SMA TRACON (SMA)
12:45PM 44.7644 -93.8864 58° Northeast 316 364 9,500 -1,500 Descending FAA TRACON SMA TRACON (SMA)
12:46PM 44.7811 -93.8572 51° Northeast 313 360 8,900 -1,680 Descending FAA TRACON SMA TRACON (SMA)
12:46PM 44.8028 -93.8217 49° Northeast 312 359 8,400 -1,380 Descending FAA TRACON SMA TRACON (SMA)
12:46PM 44.8192 -93.7936 51° Northeast 307 353 8,000 -1,080 Descending FAA TRACON SMA TRACON (SMA)
12:47PM 44.8383 -93.7589 52° Northeast 294 338 7,700 -780 Descending FAA TRACON SMA TRACON (SMA)
12:47PM 44.8536 -93.7336 50° Northeast 283 326 7,500 -1,080 Descending FAA TRACON SMA TRACON (SMA)
12:47PM 44.8675 -93.7089 52° Northeast 270 311 7,000 -900 Descending FAA TRACON SMA TRACON (SMA)
12:48PM 44.8819 -93.6842 50° Northeast 265 305 6,900 -180 Descending FAA TRACON SMA TRACON (SMA)
12:48PM 44.8997 -93.6533 51° Northeast 263 303 6,900 -300 Level FAA TRACON SMA TRACON (SMA)
12:48PM 44.9128 -93.6311 50° Northeast 251 289 6,700 -600 Descending FAA TRACON SMA TRACON (SMA)
12:49PM 44.9253 -93.6100 50° Northeast 236 272 6,500 -1,080 Descending FAA TRACON SMA TRACON (SMA)
12:49PM 44.9400 -93.5833 52° Northeast 225 259 6,000 -900 Descending FAA TRACON SMA TRACON (SMA)
12:49PM 44.9483 -93.5622 61° Northeast 212 244 5,900 -780 Descending FAA TRACON SMA TRACON (SMA)
12:50PM 44.9542 -93.5406 69° East 195 224 5,500 -1,380 Descending FAA TRACON SMA TRACON (SMA)
12:50PM 44.9614 -93.5156 68° East 180 207 5,000 -1,380 Descending FAA TRACON SMA TRACON (SMA)
12:50PM 44.9672 -93.4961 67° East 176 203 4,600 -1,200 Descending FAA TRACON SMA TRACON (SMA)
12:51PM 44.9728 -93.4767 68° East 174 200 4,200 -1,080 Descending FAA TRACON SMA TRACON (SMA)
12:51PM 44.9750 -93.4525 83° East 165 190 3,900 -480 Descending FAA TRACON SMA TRACON (SMA)
12:51PM 44.9725 -93.4339 101° East 160 184 3,900 -180 Level FAA TRACON SMA TRACON (SMA)
12:52PM 44.9664 -93.4169 117° Southeast 157 181 3,800 -480 Descending FAA TRACON SMA TRACON (SMA)
12:52PM 44.9583 -93.3972 120° Southeast 154 177 3,600 -600 Descending FAA TRACON SMA TRACON (SMA)